sensor_id;sensor_type;location;lat;lon;timestamp;pressure;altitude;pressure_sealevel;temperature;humidity
19086;BME280;9675;51.538;6.728;2023-02-28T00:01:21;102704.88;;;3.70;71.63
19086;BME280;9675;51.538;6.728;2023-02-28T00:03:49;102701.44;;;3.70;71.39
19086;BME280;9675;51.538;6.728;2023-02-28T00:06:16;102707.25;;;3.69;71.42
19086;BME280;9675;51.538;6.728;2023-02-28T00:08:43;102709.50;;;3.66;71.52
19086;BME280;9675;51.538;6.728;2023-02-28T00:11:14;102708.59;;;3.65;70.98
19086;BME280;9675;51.538;6.728;2023-02-28T00:13:45;102710.81;;;3.62;71.60
19086;BME280;9675;51.538;6.728;2023-02-28T00:16:16;102722.91;;;3.56;72.00
19086;BME280;9675;51.538;6.728;2023-02-28T00:18:44;102721.06;;;3.55;72.59
19086;BME280;9675;51.538;6.728;2023-02-28T00:21:11;102720.00;;;3.53;72.12
19086;BME280;9675;51.538;6.728;2023-02-28T00:23:38;102723.31;;;3.52;72.36
19086;BME280;9675;51.538;6.728;2023-02-28T00:26:05;102722.97;;;3.49;72.40
19086;BME280;9675;51.538;6.728;2023-02-28T00:28:32;102721.00;;;3.47;73.03
19086;BME280;9675;51.538;6.728;2023-02-28T00:31:01;102719.94;;;3.45;72.87
19086;BME280;9675;51.538;6.728;2023-02-28T00:33:28;102717.78;;;3.40;72.59
19086;BME280;9675;51.538;6.728;2023-02-28T00:36:07;102725.25;;;3.39;73.84
19086;BME280;9675;51.538;6.728;2023-02-28T00:38:35;102726.41;;;3.34;74.11
19086;BME280;9675;51.538;6.728;2023-02-28T00:41:02;102725.19;;;3.30;73.77
19086;BME280;9675;51.538;6.728;2023-02-28T00:43:32;102730.09;;;3.29;74.31
19086;BME280;9675;51.538;6.728;2023-02-28T00:46:01;102723.91;;;3.27;74.51
19086;BME280;9675;51.538;6.728;2023-02-28T00:48:28;102724.81;;;3.27;74.26
19086;BME280;9675;51.538;6.728;2023-02-28T00:50:55;102729.00;;;3.27;74.69
19086;BME280;9675;51.538;6.728;2023-02-28T00:53:23;102721.78;;;3.23;74.75
19086;BME280;9675;51.538;6.728;2023-02-28T00:55:50;102735.25;;;3.22;74.58
19086;BME280;9675;51.538;6.728;2023-02-28T00:58:17;102734.03;;;3.18;75.56
19086;BME280;9675;51.538;6.728;2023-02-28T01:00:44;102733.69;;;3.15;75.31
19086;BME280;9675;51.538;6.728;2023-02-28T01:03:17;102731.28;;;3.17;75.86
19086;BME280;9675;51.538;6.728;2023-02-28T01:05:45;102729.34;;;3.14;75.38
19086;BME280;9675;51.538;6.728;2023-02-28T01:08:13;102732.78;;;3.15;75.88
19086;BME280;9675;51.538;6.728;2023-02-28T01:10:40;102734.25;;;3.13;76.06
19086;BME280;9675;51.538;6.728;2023-02-28T01:13:08;102733.34;;;3.12;75.19
19086;BME280;9675;51.538;6.728;2023-02-28T01:15:34;102733.94;;;3.10;75.66
19086;BME280;9675;51.538;6.728;2023-02-28T01:18:02;102741.38;;;3.08;76.01
19086;BME280;9675;51.538;6.728;2023-02-28T01:20:30;102739.97;;;3.03;75.88
19086;BME280;9675;51.538;6.728;2023-02-28T01:22:57;102738.75;;;2.99;76.41
19086;BME280;9675;51.538;6.728;2023-02-28T01:25:24;102734.72;;;3.02;76.03
19086;BME280;9675;51.538;6.728;2023-02-28T01:27:51;102736.22;;;2.99;76.50
19086;BME280;9675;51.538;6.728;2023-02-28T01:30:18;102732.41;;;2.96;76.55
19086;BME280;9675;51.538;6.728;2023-02-28T01:32:45;102739.13;;;2.95;77.44
19086;BME280;9675;51.538;6.728;2023-02-28T01:35:12;102737.91;;;2.92;77.21
19086;BME280;9675;51.538;6.728;2023-02-28T01:37:41;102738.47;;;2.89;77.52
19086;BME280;9675;51.538;6.728;2023-02-28T01:40:09;102732.31;;;2.87;77.48
19086;BME280;9675;51.538;6.728;2023-02-28T01:42:36;102732.47;;;2.89;77.46
19086;BME280;9675;51.538;6.728;2023-02-28T01:45:19;102729.03;;;2.88;77.37
19086;BME280;9675;51.538;6.728;2023-02-28T01:47:51;102728.84;;;2.87;76.79
19086;BME280;9675;51.538;6.728;2023-02-28T01:50:23;102722.84;;;2.86;77.98
19086;BME280;9675;51.538;6.728;2023-02-28T01:52:57;102727.63;;;2.83;78.02
19086;BME280;9675;51.538;6.728;2023-02-28T01:55:28;102716.19;;;2.80;77.74
19086;BME280;9675;51.538;6.728;2023-02-28T01:58:00;102720.94;;;2.77;79.01
19086;BME280;9675;51.538;6.728;2023-02-28T02:00:30;102723.16;;;2.74;78.92
19086;BME280;9675;51.538;6.728;2023-02-28T02:03:01;102716.81;;;2.70;78.83
19086;BME280;9675;51.538;6.728;2023-02-28T02:05:31;102722.66;;;2.69;77.81
19086;BME280;9675;51.538;6.728;2023-02-28T02:08:05;102714.69;;;2.66;79.14
19086;BME280;9675;51.538;6.728;2023-02-28T02:10:35;102713.63;;;2.64;79.23
19086;BME280;9675;51.538;6.728;2023-02-28T02:13:27;102706.53;;;2.62;78.57
19086;BME280;9675;51.538;6.728;2023-02-28T02:16:11;102707.50;;;2.55;79.97
19086;BME280;9675;51.538;6.728;2023-02-28T02:18:46;102701.72;;;2.49;80.95
19086;BME280;9675;51.538;6.728;2023-02-28T02:22:03;102701.22;;;2.44;80.94
19086;BME280;9675;51.538;6.728;2023-02-28T02:25:12;102691.97;;;2.45;81.52
19086;BME280;9675;51.538;6.728;2023-02-28T02:28:10;102695.38;;;2.52;80.25
19086;BME280;9675;51.538;6.728;2023-02-28T02:31:28;102697.91;;;2.52;80.99
19086;BME280;9675;51.538;6.728;2023-02-28T02:34:29;102690.81;;;2.50;80.42
19086;BME280;9675;51.538;6.728;2023-02-28T02:37:13;102690.31;;;2.45;80.58
19086;BME280;9675;51.538;6.728;2023-02-28T02:39:50;102699.59;;;2.45;81.26
19086;BME280;9675;51.538;6.728;2023-02-28T02:42:27;102701.78;;;2.42;81.58
19086;BME280;9675;51.538;6.728;2023-02-28T02:45:01;102697.44;;;2.41;81.16
19086;BME280;9675;51.538;6.728;2023-02-28T02:47:33;102698.91;;;2.39;80.55
19086;BME280;9675;51.538;6.728;2023-02-28T02:50:11;102693.66;;;2.37;80.82
19086;BME280;9675;51.538;6.728;2023-02-28T02:52:47;102692.56;;;2.35;81.14
19086;BME280;9675;51.538;6.728;2023-02-28T02:55:19;102693.16;;;2.33;80.91
19086;BME280;9675;51.538;6.728;2023-02-28T02:57:51;102698.78;;;2.30;81.50
19086;BME280;9675;51.538;6.728;2023-02-28T03:00:26;102700.22;;;2.28;81.16
19086;BME280;9675;51.538;6.728;2023-02-28T03:02:56;102695.72;;;2.26;81.13
19086;BME280;9675;51.538;6.728;2023-02-28T03:05:28;102697.53;;;2.27;80.82
19086;BME280;9675;51.538;6.728;2023-02-28T03:07:58;102695.41;;;2.23;81.19
19086;BME280;9675;51.538;6.728;2023-02-28T03:10:36;102689.97;;;2.20;81.31
19086;BME280;9675;51.538;6.728;2023-02-28T03:13:45;102690.69;;;2.19;81.93
19086;BME280;9675;51.538;6.728;2023-02-28T03:16:33;102699.06;;;2.18;81.11
19086;BME280;9675;51.538;6.728;2023-02-28T03:19:29;102695.44;;;2.16;81.92
19086;BME280;9675;51.538;6.728;2023-02-28T03:22:14;102690.75;;;2.11;82.26
19086;BME280;9675;51.538;6.728;2023-02-28T03:24:52;102690.00;;;2.12;83.36
19086;BME280;9675;51.538;6.728;2023-02-28T03:27:27;102695.84;;;2.11;82.41
19086;BME280;9675;51.538;6.728;2023-02-28T03:30:03;102692.03;;;2.08;81.85
19086;BME280;9675;51.538;6.728;2023-02-28T03:32:38;102691.50;;;2.03;82.88
19086;BME280;9675;51.538;6.728;2023-02-28T03:35:14;102693.13;;;2.03;82.71
19086;BME280;9675;51.538;6.728;2023-02-28T03:37:53;102702.41;;;2.02;82.13
19086;BME280;9675;51.538;6.728;2023-02-28T03:40:30;102700.44;;;2.00;82.32
19086;BME280;9675;51.538;6.728;2023-02-28T03:43:17;102701.88;;;1.98;82.38
19086;BME280;9675;51.538;6.728;2023-02-28T03:45:50;102703.34;;;1.96;83.68
19086;BME280;9675;51.538;6.728;2023-02-28T03:48:22;102706.63;;;1.95;83.42
19086;BME280;9675;51.538;6.728;2023-02-28T03:50:55;102709.16;;;1.95;83.37
19086;BME280;9675;51.538;6.728;2023-02-28T03:53:30;102710.63;;;1.93;82.66
19086;BME280;9675;51.538;6.728;2023-02-28T03:56:06;102707.94;;;1.91;82.70
19086;BME280;9675;51.538;6.728;2023-02-28T03:58:42;102709.38;;;1.89;83.04
19086;BME280;9675;51.538;6.728;2023-02-28T04:01:16;102713.34;;;1.87;82.83
19086;BME280;9675;51.538;6.728;2023-02-28T04:03:46;102706.13;;;1.83;83.14
19086;BME280;9675;51.538;6.728;2023-02-28T04:06:17;102702.53;;;1.81;83.63
19086;BME280;9675;51.538;6.728;2023-02-28T04:08:47;102705.94;;;1.82;83.12
19086;BME280;9675;51.538;6.728;2023-02-28T04:11:22;102708.88;;;1.78;83.51
19086;BME280;9675;51.538;6.728;2023-02-28T04:13:50;102697.09;;;1.78;83.67
19086;BME280;9675;51.538;6.728;2023-02-28T04:16:17;102689.66;;;1.80;83.78
19086;BME280;9675;51.538;6.728;2023-02-28T04:18:44;102698.00;;;1.79;83.76
19086;BME280;9675;51.538;6.728;2023-02-28T04:21:12;102700.72;;;1.80;83.53
19086;BME280;9675;51.538;6.728;2023-02-28T04:23:39;102698.00;;;1.79;83.41
19086;BME280;9675;51.538;6.728;2023-02-28T04:26:07;102707.06;;;1.77;82.87
19086;BME280;9675;51.538;6.728;2023-02-28T04:28:36;102715.25;;;1.74;83.32
19086;BME280;9675;51.538;6.728;2023-02-28T04:31:05;102721.06;;;1.73;83.07
19086;BME280;9675;51.538;6.728;2023-02-28T04:33:32;102712.34;;;1.71;82.84
19086;BME280;9675;51.538;6.728;2023-02-28T04:36:01;102721.44;;;1.69;82.64
19086;BME280;9675;51.538;6.728;2023-02-28T04:38:29;102713.63;;;1.67;82.89
19086;BME280;9675;51.538;6.728;2023-02-28T04:40:57;102711.81;;;1.66;83.25
19086;BME280;9675;51.538;6.728;2023-02-28T04:43:27;102719.28;;;1.65;82.56
19086;BME280;9675;51.538;6.728;2023-02-28T04:45:54;102714.94;;;1.64;82.33
19086;BME280;9675;51.538;6.728;2023-02-28T04:48:22;102716.56;;;1.63;82.47
19086;BME280;9675;51.538;6.728;2023-02-28T04:50:51;102712.03;;;1.61;82.66
19086;BME280;9675;51.538;6.728;2023-02-28T04:53:19;102720.03;;;1.57;82.81
19086;BME280;9675;51.538;6.728;2023-02-28T04:55:46;102722.94;;;1.46;80.90
19086;BME280;9675;51.538;6.728;2023-02-28T04:58:13;102722.81;;;1.30;81.95
19086;BME280;9675;51.538;6.728;2023-02-28T05:00:42;102717.59;;;1.21;82.73
19086;BME280;9675;51.538;6.728;2023-02-28T05:03:09;102721.56;;;1.19;83.21
19086;BME280;9675;51.538;6.728;2023-02-28T05:05:36;102717.41;;;1.20;83.15
19086;BME280;9675;51.538;6.728;2023-02-28T05:08:04;102721.94;;;1.15;83.71
19086;BME280;9675;51.538;6.728;2023-02-28T05:10:31;102724.31;;;1.14;84.02
19086;BME280;9675;51.538;6.728;2023-02-28T05:12:58;102722.50;;;1.13;84.41
19086;BME280;9675;51.538;6.728;2023-02-28T05:15:25;102723.03;;;1.10;84.31
19086;BME280;9675;51.538;6.728;2023-02-28T05:17:54;102721.22;;;1.09;84.35
19086;BME280;9675;51.538;6.728;2023-02-28T05:20:21;102719.06;;;1.05;84.60
19086;BME280;9675;51.538;6.728;2023-02-28T05:22:49;102725.03;;;1.06;84.93
19086;BME280;9675;51.538;6.728;2023-02-28T05:25:19;102729.91;;;1.04;84.46
19086;BME280;9675;51.538;6.728;2023-02-28T05:27:47;102731.53;;;1.04;84.36
19086;BME280;9675;51.538;6.728;2023-02-28T05:30:15;102724.50;;;1.01;84.94
19086;BME280;9675;51.538;6.728;2023-02-28T05:32:42;102726.84;;;1.00;84.91
19086;BME280;9675;51.538;6.728;2023-02-28T05:35:11;102737.03;;;0.93;85.05
19086;BME280;9675;51.538;6.728;2023-02-28T05:37:39;102735.91;;;0.91;85.25
19086;BME280;9675;51.538;6.728;2023-02-28T05:40:08;102741.72;;;0.90;85.78
19086;BME280;9675;51.538;6.728;2023-02-28T05:42:36;102744.97;;;0.89;85.57
19086;BME280;9675;51.538;6.728;2023-02-28T05:45:04;102743.19;;;0.88;85.73
19086;BME280;9675;51.538;6.728;2023-02-28T05:47:32;102741.88;;;0.84;85.62
19086;BME280;9675;51.538;6.728;2023-02-28T05:49:59;102741.88;;;0.84;85.35
19086;BME280;9675;51.538;6.728;2023-02-28T05:52:29;102749.16;;;0.81;86.02
19086;BME280;9675;51.538;6.728;2023-02-28T05:54:56;102744.06;;;0.74;85.94
19086;BME280;9675;51.538;6.728;2023-02-28T05:57:24;102756.59;;;0.72;86.36
19086;BME280;9675;51.538;6.728;2023-02-28T05:59:51;102754.22;;;0.74;86.37
19086;BME280;9675;51.538;6.728;2023-02-28T06:02:18;102750.94;;;0.75;86.45
19086;BME280;9675;51.538;6.728;2023-02-28T06:04:45;102750.94;;;0.75;85.69
19086;BME280;9675;51.538;6.728;2023-02-28T06:07:13;102746.59;;;0.74;85.69
19086;BME280;9675;51.538;6.728;2023-02-28T06:09:42;102757.84;;;0.76;85.60
19086;BME280;9675;51.538;6.728;2023-02-28T06:12:10;102757.47;;;0.73;85.50
19086;BME280;9675;51.538;6.728;2023-02-28T06:14:37;102758.94;;;0.71;85.87
19086;BME280;9675;51.538;6.728;2023-02-28T06:17:04;102762.19;;;0.70;85.79
19086;BME280;9675;51.538;6.728;2023-02-28T06:19:31;102766.91;;;0.67;85.61
19086;BME280;9675;51.538;6.728;2023-02-28T06:21:59;102760.53;;;0.63;85.74
19086;BME280;9675;51.538;6.728;2023-02-28T06:24:27;102767.97;;;0.62;86.69
19086;BME280;9675;51.538;6.728;2023-02-28T06:26:58;102762.91;;;0.62;86.49
19086;BME280;9675;51.538;6.728;2023-02-28T06:29:31;102764.88;;;0.57;86.52
19086;BME280;9675;51.538;6.728;2023-02-28T06:31:58;102768.66;;;0.54;87.12
19086;BME280;9675;51.538;6.728;2023-02-28T06:34:25;102772.84;;;0.53;87.04
19086;BME280;9675;51.538;6.728;2023-02-28T06:36:53;102772.47;;;0.50;87.61
19086;BME280;9675;51.538;6.728;2023-02-28T06:39:20;102776.63;;;0.50;87.77
19086;BME280;9675;51.538;6.728;2023-02-28T06:41:47;102776.63;;;0.50;87.38
19086;BME280;9675;51.538;6.728;2023-02-28T06:44:18;102777.53;;;0.50;87.66
19086;BME280;9675;51.538;6.728;2023-02-28T06:46:46;102776.44;;;0.48;87.78
19086;BME280;9675;51.538;6.728;2023-02-28T06:49:13;102783.13;;;0.48;87.45
19086;BME280;9675;51.538;6.728;2023-02-28T06:51:44;102781.16;;;0.45;87.90
19086;BME280;9675;51.538;6.728;2023-02-28T06:54:20;102784.22;;;0.42;88.74
19086;BME280;9675;51.538;6.728;2023-02-28T06:56:47;102787.84;;;0.45;89.05
19086;BME280;9675;51.538;6.728;2023-02-28T06:59:15;102784.59;;;0.46;88.80
19086;BME280;9675;51.538;6.728;2023-02-28T07:01:44;102785.50;;;0.46;88.62
19086;BME280;9675;51.538;6.728;2023-02-28T07:04:12;102788.03;;;0.46;88.26
19086;BME280;9675;51.538;6.728;2023-02-28T07:06:41;102792.00;;;0.44;88.80
19086;BME280;9675;51.538;6.728;2023-02-28T07:09:08;102785.69;;;0.40;89.86
19086;BME280;9675;51.538;6.728;2023-02-28T07:11:41;102799.06;;;0.39;89.55
19086;BME280;9675;51.538;6.728;2023-02-28T07:14:10;102799.06;;;0.39;89.41
19086;BME280;9675;51.538;6.728;2023-02-28T07:16:39;102802.31;;;0.38;90.36
19086;BME280;9675;51.538;6.728;2023-02-28T07:19:11;102796.53;;;0.39;90.61
19086;BME280;9675;51.538;6.728;2023-02-28T07:21:39;102792.16;;;0.38;90.31
19086;BME280;9675;51.538;6.728;2023-02-28T07:24:06;102808.28;;;0.39;90.44
19086;BME280;9675;51.538;6.728;2023-02-28T07:26:33;102807.38;;;0.38;90.50
19086;BME280;9675;51.538;6.728;2023-02-28T07:29:00;102814.97;;;0.38;90.90
19086;BME280;9675;51.538;6.728;2023-02-28T07:31:29;102810.63;;;0.37;91.13
19086;BME280;9675;51.538;6.728;2023-02-28T07:34:02;102809.91;;;0.38;91.12
19086;BME280;9675;51.538;6.728;2023-02-28T07:36:31;102814.78;;;0.37;92.47
19086;BME280;9675;51.538;6.728;2023-02-28T07:38:59;102811.53;;;0.38;92.66
19086;BME280;9675;51.538;6.728;2023-02-28T07:41:26;102814.97;;;0.38;92.23
19086;BME280;9675;51.538;6.728;2023-02-28T07:43:59;102815.16;;;0.40;92.43
19086;BME280;9675;51.538;6.728;2023-02-28T07:46:27;102805.94;;;0.40;93.26
19086;BME280;9675;51.538;6.728;2023-02-28T07:48:55;102813.91;;;0.43;92.97
19086;BME280;9675;51.538;6.728;2023-02-28T07:51:25;102820.06;;;0.46;93.08
19086;BME280;9675;51.538;6.728;2023-02-28T07:53:53;102814.28;;;0.47;93.27
19086;BME280;9675;51.538;6.728;2023-02-28T07:56:22;102816.97;;;0.48;93.20
19086;BME280;9675;51.538;6.728;2023-02-28T07:58:49;102820.44;;;0.49;93.02
19086;BME280;9675;51.538;6.728;2023-02-28T08:01:17;102807.03;;;0.50;93.03
19086;BME280;9675;51.538;6.728;2023-02-28T08:03:45;102820.81;;;0.52;93.42
19086;BME280;9675;51.538;6.728;2023-02-28T08:06:18;102816.63;;;0.52;93.78
19086;BME280;9675;51.538;6.728;2023-02-28T08:08:46;102815.75;;;0.52;93.60
19086;BME280;9675;51.538;6.728;2023-02-28T08:11:16;102820.25;;;0.54;93.82
19086;BME280;9675;51.538;6.728;2023-02-28T08:13:44;102819.34;;;0.54;93.60
19086;BME280;9675;51.538;6.728;2023-02-28T08:16:13;102824.81;;;0.57;93.87
19086;BME280;9675;51.538;6.728;2023-02-28T08:18:43;102827.50;;;0.58;93.40
19086;BME280;9675;51.538;6.728;2023-02-28T08:21:10;102824.44;;;0.61;92.80
19086;BME280;9675;51.538;6.728;2023-02-28T08:23:37;102827.88;;;0.68;92.56
19086;BME280;9675;51.538;6.728;2023-02-28T08:26:05;102811.44;;;0.72;92.08
19086;BME280;9675;51.538;6.728;2023-02-28T08:28:34;102823.19;;;0.78;91.55
19086;BME280;9675;51.538;6.728;2023-02-28T08:31:08;102823.94;;;0.84;91.22
19086;BME280;9675;51.538;6.728;2023-02-28T08:33:36;102817.25;;;0.92;90.58
19086;BME280;9675;51.538;6.728;2023-02-28T08:36:06;102818.34;;;1.01;89.18
19086;BME280;9675;51.538;6.728;2023-02-28T08:38:33;102827.22;;;1.12;87.94
19086;BME280;9675;51.538;6.728;2023-02-28T08:41:03;102827.25;;;1.19;86.95
19086;BME280;9675;51.538;6.728;2023-02-28T08:43:33;102818.88;;;1.27;85.65
19086;BME280;9675;51.538;6.728;2023-02-28T08:46:00;102824.69;;;1.33;85.53
19086;BME280;9675;51.538;6.728;2023-02-28T08:48:29;102821.25;;;1.40;85.08
19086;BME280;9675;51.538;6.728;2023-02-28T08:50:58;102817.25;;;1.35;86.31
19086;BME280;9675;51.538;6.728;2023-02-28T08:53:26;102817.22;;;1.42;85.87
19086;BME280;9675;51.538;6.728;2023-02-28T08:55:58;102823.03;;;1.48;85.23
19086;BME280;9675;51.538;6.728;2023-02-28T08:58:25;102813.78;;;1.55;84.85
19086;BME280;9675;51.538;6.728;2023-02-28T09:00:54;102812.84;;;1.62;84.54
19086;BME280;9675;51.538;6.728;2023-02-28T09:03:22;102815.00;;;1.73;84.04
19086;BME280;9675;51.538;6.728;2023-02-28T09:05:58;102813.69;;;1.84;83.34
19086;BME280;9675;51.538;6.728;2023-02-28T09:08:29;102817.47;;;1.94;80.44
19086;BME280;9675;51.538;6.728;2023-02-28T09:10:57;102812.53;;;2.03;78.78
19086;BME280;9675;51.538;6.728;2023-02-28T09:13:26;102802.69;;;2.13;78.40
19086;BME280;9675;51.538;6.728;2023-02-28T09:15:57;102803.91;;;2.24;76.99
19086;BME280;9675;51.538;6.728;2023-02-28T09:18:24;102798.09;;;2.32;77.21
19086;BME280;9675;51.538;6.728;2023-02-28T09:20:52;102801.66;;;2.41;75.33
19086;BME280;9675;51.538;6.728;2023-02-28T09:23:20;102801.06;;;2.50;75.09
19086;BME280;9675;51.538;6.728;2023-02-28T09:25:49;102797.91;;;2.60;72.95
19086;BME280;9675;51.538;6.728;2023-02-28T09:28:18;102788.78;;;2.69;73.27
19086;BME280;9675;51.538;6.728;2023-02-28T09:30:48;102792.34;;;2.78;70.50
19086;BME280;9675;51.538;6.728;2023-02-28T09:33:18;102791.13;;;2.90;70.79
19086;BME280;9675;51.538;6.728;2023-02-28T09:35:46;102787.09;;;2.99;69.17
19086;BME280;9675;51.538;6.728;2023-02-28T09:38:14;102782.28;;;3.10;67.66
19086;BME280;9675;51.538;6.728;2023-02-28T09:40:50;102793.28;;;3.17;66.11
19086;BME280;9675;51.538;6.728;2023-02-28T09:43:21;102789.50;;;3.36;64.27
19086;BME280;9675;51.538;6.728;2023-02-28T09:45:52;102790.00;;;3.41;62.17
19086;BME280;9675;51.538;6.728;2023-02-28T09:48:32;102783.28;;;3.57;62.77
19086;BME280;9675;51.538;6.728;2023-02-28T09:51:05;102785.31;;;3.68;62.41
19086;BME280;9675;51.538;6.728;2023-02-28T09:53:38;102789.00;;;3.79;61.14
19086;BME280;9675;51.538;6.728;2023-02-28T09:56:10;102784.94;;;3.88;60.50
19086;BME280;9675;51.538;6.728;2023-02-28T09:58:48;102774.06;;;3.98;60.01
19086;BME280;9675;51.538;6.728;2023-02-28T10:01:27;102789.00;;;4.10;60.35
19086;BME280;9675;51.538;6.728;2023-02-28T10:04:03;102776.66;;;4.22;58.27
19086;BME280;9675;51.538;6.728;2023-02-28T10:06:44;102780.50;;;4.34;58.67
19086;BME280;9675;51.538;6.728;2023-02-28T10:09:18;102785.41;;;4.48;57.14
19086;BME280;9675;51.538;6.728;2023-02-28T10:11:52;102787.47;;;4.68;57.02
19086;BME280;9675;51.538;6.728;2023-02-28T10:14:24;102779.75;;;4.84;56.63
19086;BME280;9675;51.538;6.728;2023-02-28T10:16:57;102778.94;;;5.00;56.31
19086;BME280;9675;51.538;6.728;2023-02-28T10:19:34;102773.41;;;5.13;56.88
19086;BME280;9675;51.538;6.728;2023-02-28T10:22:10;102783.53;;;5.20;56.21
19086;BME280;9675;51.538;6.728;2023-02-28T10:24:42;102764.78;;;5.28;56.75
19086;BME280;9675;51.538;6.728;2023-02-28T10:27:15;102770.66;;;5.36;55.63
19086;BME280;9675;51.538;6.728;2023-02-28T10:29:45;102769.81;;;5.52;54.64
19086;BME280;9675;51.538;6.728;2023-02-28T10:32:17;102762.63;;;5.74;53.36
19086;BME280;9675;51.538;6.728;2023-02-28T10:34:50;102773.13;;;5.86;54.29
19086;BME280;9675;51.538;6.728;2023-02-28T10:37:19;102769.13;;;5.96;53.35
19086;BME280;9675;51.538;6.728;2023-02-28T10:39:47;102778.31;;;6.03;52.18
19086;BME280;9675;51.538;6.728;2023-02-28T10:42:23;102777.88;;;6.16;52.41
19086;BME280;9675;51.538;6.728;2023-02-28T10:45:09;102765.06;;;6.24;53.19
19086;BME280;9675;51.538;6.728;2023-02-28T10:47:49;102760.56;;;6.30;53.10
19086;BME280;9675;51.538;6.728;2023-02-28T10:50:36;102768.66;;;6.35;52.02
19086;BME280;9675;51.538;6.728;2023-02-28T10:53:28;102759.16;;;6.43;51.27
19086;BME280;9675;51.538;6.728;2023-02-28T10:56:00;102757.97;;;6.48;51.60
19086;BME280;9675;51.538;6.728;2023-02-28T10:58:31;102751.78;;;6.54;50.99
19086;BME280;9675;51.538;6.728;2023-02-28T11:00:59;102766.06;;;6.61;50.60
19086;BME280;9675;51.538;6.728;2023-02-28T11:03:32;102750.25;;;6.65;50.05
19086;BME280;9675;51.538;6.728;2023-02-28T11:06:08;102761.66;;;6.68;50.90
19086;BME280;9675;51.538;6.728;2023-02-28T11:08:47;102753.22;;;6.69;50.28
19086;BME280;9675;51.538;6.728;2023-02-28T11:11:16;102756.22;;;6.74;50.95
19086;BME280;9675;51.538;6.728;2023-02-28T11:13:47;102757.75;;;6.72;49.81
19086;BME280;9675;51.538;6.728;2023-02-28T11:16:17;102753.53;;;6.72;49.36
19086;BME280;9675;51.538;6.728;2023-02-28T11:18:49;102758.03;;;6.75;50.79
19086;BME280;9675;51.538;6.728;2023-02-28T11:21:22;102753.06;;;6.76;50.11
19086;BME280;9675;51.538;6.728;2023-02-28T11:23:56;102752.16;;;6.76;50.77
19086;BME280;9675;51.538;6.728;2023-02-28T11:26:38;102751.69;;;6.80;50.27
19086;BME280;9675;51.538;6.728;2023-02-28T11:29:20;102748.09;;;6.78;49.22
19086;BME280;9675;51.538;6.728;2023-02-28T11:32:12;102754.56;;;6.83;49.89
19086;BME280;9675;51.538;6.728;2023-02-28T11:34:41;102754.38;;;6.90;49.08
19086;BME280;9675;51.538;6.728;2023-02-28T11:37:14;102741.66;;;7.00;49.73
19086;BME280;9675;51.538;6.728;2023-02-28T11:39:42;102746.00;;;7.10;49.34
19086;BME280;9675;51.538;6.728;2023-02-28T11:42:40;102752.75;;;7.18;48.87
19086;BME280;9675;51.538;6.728;2023-02-28T11:45:36;102751.47;;;7.32;47.95
19086;BME280;9675;51.538;6.728;2023-02-28T11:48:20;102727.72;;;7.43;48.38
19086;BME280;9675;51.538;6.728;2023-02-28T11:51:05;102726.78;;;7.51;48.09
19086;BME280;9675;51.538;6.728;2023-02-28T11:56:47;102739.78;;;7.71;48.24
19086;BME280;9675;51.538;6.728;2023-02-28T11:59:35;102729.50;;;7.71;47.67
19086;BME280;9675;51.538;6.728;2023-02-28T12:02:24;102741.00;;;7.66;47.10
19086;BME280;9675;51.538;6.728;2023-02-28T12:05:10;102730.75;;;7.66;46.26
19086;BME280;9675;51.538;6.728;2023-02-28T12:07:51;102727.06;;;7.73;46.77
19086;BME280;9675;51.538;6.728;2023-02-28T12:10:26;102718.28;;;7.79;46.33
19086;BME280;9675;51.538;6.728;2023-02-28T12:13:12;102713.44;;;7.82;46.34
19086;BME280;9675;51.538;6.728;2023-02-28T12:16:15;102706.50;;;7.81;45.42
19086;BME280;9675;51.538;6.728;2023-02-28T12:19:13;102695.00;;;7.86;46.14
19086;BME280;9675;51.538;6.728;2023-02-28T12:22:25;102696.06;;;7.98;45.87
19086;BME280;9675;51.538;6.728;2023-02-28T12:25:37;102691.84;;;8.18;45.12
19086;BME280;9675;51.538;6.728;2023-02-28T12:28:09;102686.44;;;8.33;45.94
19086;BME280;9675;51.538;6.728;2023-02-28T12:30:48;102677.50;;;8.48;45.43
19086;BME280;9675;51.538;6.728;2023-02-28T12:33:21;102673.41;;;8.61;46.05
19086;BME280;9675;51.538;6.728;2023-02-28T12:35:52;102681.25;;;8.62;45.57
19086;BME280;9675;51.538;6.728;2023-02-28T12:38:24;102678.69;;;8.62;45.06
19086;BME280;9675;51.538;6.728;2023-02-28T12:40:59;102672.78;;;8.63;45.49
19086;BME280;9675;51.538;6.728;2023-02-28T12:43:33;102664.31;;;8.64;45.37
19086;BME280;9675;51.538;6.728;2023-02-28T12:46:07;102659.81;;;8.72;44.45
19086;BME280;9675;51.538;6.728;2023-02-28T12:48:43;102667.06;;;8.86;44.75
19086;BME280;9675;51.538;6.728;2023-02-28T12:51:13;102657.94;;;9.00;44.63
19086;BME280;9675;51.538;6.728;2023-02-28T12:53:58;102653.72;;;9.10;44.20
19086;BME280;9675;51.538;6.728;2023-02-28T12:56:42;102654.09;;;9.25;44.05
19086;BME280;9675;51.538;6.728;2023-02-28T12:59:22;102638.13;;;9.39;43.51
19086;BME280;9675;51.538;6.728;2023-02-28T13:02:45;102655.50;;;9.52;43.76
19086;BME280;9675;51.538;6.728;2023-02-28T13:05:36;102638.78;;;9.57;44.35
19086;BME280;9675;51.538;6.728;2023-02-28T13:08:54;102637.09;;;9.57;43.82
19086;BME280;9675;51.538;6.728;2023-02-28T13:11:29;102642.22;;;9.67;44.21
19086;BME280;9675;51.538;6.728;2023-02-28T13:14:02;102629.00;;;9.63;44.31
19086;BME280;9675;51.538;6.728;2023-02-28T13:16:59;102634.38;;;9.66;44.23
19086;BME280;9675;51.538;6.728;2023-02-28T13:19:31;102631.63;;;9.74;44.04
19086;BME280;9675;51.538;6.728;2023-02-28T13:21:59;102631.13;;;9.78;44.42
19086;BME280;9675;51.538;6.728;2023-02-28T13:24:46;102624.19;;;9.77;43.46
19086;BME280;9675;51.538;6.728;2023-02-28T13:27:36;102619.28;;;9.80;43.79
19086;BME280;9675;51.538;6.728;2023-02-28T13:33:30;102609.22;;;9.94;43.87
19086;BME280;9675;51.538;6.728;2023-02-28T13:36:10;102621.41;;;9.96;43.91
19086;BME280;9675;51.538;6.728;2023-02-28T13:38:40;102618.97;;;9.98;43.57
19086;BME280;9675;51.538;6.728;2023-02-28T13:41:43;102621.69;;;9.99;43.32
19086;BME280;9675;51.538;6.728;2023-02-28T13:44:13;102610.47;;;9.99;43.49
19086;BME280;9675;51.538;6.728;2023-02-28T13:47:24;102613.09;;;9.89;43.11
19086;BME280;9675;51.538;6.728;2023-02-28T13:50:21;102613.59;;;9.95;43.39